METAR Data
IDs: Format: Raw Decoded Include TAF

Data at: 1339 UTC 14 Dec 2019

PAHN 141305Z AUTO 00000KT 10SM BKN013 OVC028 03/01 A3000 RMK AO2 T00280011 TSNO
PAHN 141254Z AUTO 00000KT 10SM FEW010 SCT014 OVC028 03/01 A3000 RMK AO2 SLP160 T00280011 TSNO
PAHN 141239Z AUTO VRB04KT 10SM FEW010 BKN030 OVC075 04/02 A3000 RMK AO2 T00390017 TSNO
PAHN 141154Z AUTO VRB06KT 10SM OVC011 04/02 A3000 RMK SLP159 70009 T00390017 10039 20033 52008 TSNO VIA AUTODIAL
PAHN 141054Z AUTO VRB04KT 10SM OVC010 04/02 A2999 RMK AO2 SLP157 T00390017 TSNO
PAHN 141041Z AUTO VRB05KT 10SM OVC010 04/02 A2999 RMK AO2 T00390017 TSNO
PAHN 140954Z AUTO 08008KT 10SM OVC008 04/02 A2998 RMK AO2 SLP154 T00390017 TSNO
PAHN 140927Z AUTO 08009KT 10SM OVC009 04/02 A2997 RMK AO2 T00390017 TSNO
PAHN 140854Z AUTO 07006G14KT 10SM OVC010 04/02 A2997 RMK AO2 SLP151 T00390017 400440011 51007 TSNO
PAHN 140754Z AUTO 11006KT 10SM OVC013 04/02 A2997 RMK AO2 SLP150 T00390017 TSNO
PAHN 140654Z AUTO 11007KT 10SM OVC011 04/02 A2996 RMK AO2 SLP147 T00390017 TSNO
PAHN 140554Z AUTO 08009G17KT 10SM OVC012 04/02 A2995 RMK AO2 SLP144 60000 T00390017 10044 20033 53009 TSNO
PAHN 140454Z AUTO VRB06KT 10SM OVC014 04/01 A2994 RMK AO2 SLP140 T00390011 TSNO
PAHN 140354Z AUTO 07010KT 10SM OVC013 04/02 A2993 RMK AO2 SLP136 T00390017 TSNO
PAHN 140254Z AUTO 07010G16KT 10SM OVC014 04/02 A2992 RMK AO2 RAE03 SLP135 P0000 60000 T00390017 53003 TSNO
PAHN 140154Z AUTO 08011G17KT 10SM -RA BKN013 BKN042 OVC075 04/02 A2992 RMK RAE03B51 SLP134 P0000 T00390017 TSNO VIA AUTODIAL
PAHN 140127Z AUTO 08009G18KT 10SM OVC013 04/02 A2991 RMK AO2 RAE03 P0000 T00390017 TSNO
PAHN 140054Z AUTO 08008KT 10SM -RA OVC015 04/02 A2991 RMK AO2 RAE32B51 SLP131 P0000 T00390017 TSNO
PAHN 140035Z AUTO 09009KT 10SM OVC015 04/02 A2991 RMK AO2 RAE32 P0000 T00390017 TSNO
PAHN 132354Z AUTO 09008KT 10SM -RA OVC012 03/02 A2991 RMK SLP132 P0000 60005 T00330017 10044 20033 53007 TSNO VIA AUTODIAL
PAHN 132254Z AUTO 07009G16KT 8SM -RA BKN012 OVC020 03/02 A2991 RMK AO2 SLP129 P0002 T00330017 TSNO
PAHN 132208Z AUTO 07012G18KT 9SM -RA BKN014 OVC023 04/02 A2990 RMK AO2 P0001 T00390017 TSNO
PAHN 132154Z AUTO 08010G17KT 9SM -RA SCT013 BKN018 OVC023 04/02 A2989 RMK SLP125 P0002 T00390017 TSNO VIA AUTODIAL
PAHN 132112Z AUTO 07010G17KT 9SM -RA BKN014 OVC019 04/02 A2990 RMK AO2 P0001 T00390017 TSNO
PAHN 132054Z AUTO 07010G15KT 8SM -RA BKN016 OVC024 04/02 A2989 RMK AO2 SLP125 P0001 60001 T00390017 53005 TSNO
PAHN 132037Z AUTO 06010G16KT 9SM -RA FEW017 BKN024 OVC033 04/02 A2990 RMK AO2 P0001 T00390017 TSNO
PAHN 132018Z AUTO 05011G18KT 8SM -RA FEW016 SCT021 OVC032 04/02 A2989 RMK AO2 P0001 T00440017 TSNO
PAHN 131954Z AUTO 07009G15KT 8SM -RA BKN017 OVC031 04/02 A2989 RMK AO2 RAB42 SLP123 P0000 T00440017 TSNO
PAHN 131921Z AUTO 08012G17KT 10SM OVC016 04/02 A2988 RMK AO2 T00440017 TSNO
PAHN 131854Z AUTO 07010KT 10SM OVC014 04/02 A2988 RMK AO2 SLP120 T00440017 TSNO
PAHN 131852Z AUTO 08008KT 10SM OVC014 04/02 A2988 RMK AO2 TSNO
PAHN 131822Z AUTO 07009G18KT 10SM OVC015 04/02 A2987 RMK AO2 T00440017 TSNO
PAHN 131754Z AUTO 09009G17KT 10SM OVC013 04/02 A2986 RMK AO2 RAB09E21 SLP115 P0000 60004 T00440017 10044 20022 53010 TSNO
PAHN 131554Z AUTO 09010KT 10SM OVC011 03/02 A2983 RMK AO2 RAE09B31E39 SLP104 P0000 T00330017 TSNO
PAHN 131454Z AUTO 09009KT 10SM -RA OVC011 03/01 A2983 RMK UPB26E33 SLP105 P0003 60004 T00280011 53013 TSNO VIA AUTODIAL
PAHN 131435Z AUTO 10007KT 5SM -RA BR OVC013 03/01 A2983 RMK UPB26E33 P0003 T00280011 TSNO VIA AUTODIAL
PAHN 131409Z AUTO 11005KT 6SM -RA BR OVC015 02/01 A2983 RMK AO2 P0002 T00220011 TSNO
PAHN 131354Z AUTO 10006KT 7SM -RA OVC014 02/01 A2982 RMK AO2 UPB02E13 SLP101 P0001 T00220011 TSNO
PAHN 131254Z AUTO 11010KT 10SM -RA OVC016 03/01 A2980 RMK AO2 RAE04B20UPB04E20 SLP093 P0000 T00280006 TSNO
PAHN 131231Z AUTO 11009KT 10SM -RA BKN016 OVC020 02/01 A2979 RMK AO2 RAE04B20UPB04E20 P0000 T00220006 TSNO
PAHN 131154Z AUTO 10009G15KT 070V130 10SM -RA OVC014 03/01 A2980 RMK AO2 RAE16B50 SLP092 P0000 60008 70011 T00280006 10033 20011 52015 TSNO
PAHN 131144Z AUTO VRB06KT 10SM OVC014 03/01 A2979 RMK AO2 RAE16 P0000 T00280006 TSNO
PAHN 131106Z AUTO 10011G19KT 10SM -RA BKN018 BKN023 OVC043 03/00 A2978 RMK AO2 P0000 T00280000 TSNO
PAHN 131051Z AUTO 10009G18KT 8SM -RA SCT018 OVC039 02/00 A2977 RMK AO2 UPB00E10B31E34 P0001 TSNO
PAHN 130954Z AUTO 09007KT 10SM -RA OVC021 02/00 A2975 RMK UPB06E46RAB12E21B46SNE06 SLP077 P0001 T00220000 TSNO VIA AUTODIAL
PAHN 130854Z AUTO 14008G18KT 6SM -SN BR OVC023 01/M01 A2972 RMK RAE50UPB42E45SNB50 SLP067 P0003 60006 T00111006 400330006 53029 TSNO VIA AUTODIAL
PAHN 130754Z AUTO 7SM -RA OVC023 02/M01 A2968 RMK AO2 UPB13E22 SLP052 P0002 T00171006 TSNO
PAHN 130654Z AUTO 08006KT 6SM -RA BR OVC027 02/00 A2965 RMK AO2 UPB24E54 SLP043 P0001 T00220000 TSNO
PAHN 130554Z AUTO 13011KT 9SM -RA OVC027 02/M01 A2964 RMK SLP038 P0000 60003 T00221011 10033 20011 51020 TSNO VIA AUTODIAL
PAHN 130533Z AUTO 10SM -RA BKN029 BKN034 OVC075 02/M01 A2962 RMK AO2 P0000 T00221006 TSNO
PAHN 130454Z AUTO 15008KT 10SM -RA OVC030 02/M01 A2962 RMK AO2 UPE41RAB0359 SLP033 P0001 T00171006 TSNO
PAHN 130354Z AUTO 14007KT 8SM UP OVC028 02/M01 A2960 RMK AO2 RAB0258E30UPB30SNE19 SLP026 P0001 T00171006 TSNO
PAHN 130254Z AUTO VRB03KT 7SM -SN OVC027 02/M01 A2958 RMK UPB11E13SNE11B13 SLP018 P0001 60001 T00171006 53023 TSNO VIA AUTODIAL
PAHN 130154Z AUTO 00000KT 5SM -SN OVC024 02/M01 A2955 RMK AO2 UPB08E18SNB25 SLP010 P0000 T00171011 TSNO